createdAt,value
2022-10-09T00:01:12.149Z,91.36
2022-10-09T00:03:41.191Z,90.70
2022-10-09T00:06:10.461Z,90.66
2022-10-09T00:08:43.677Z,90.99
2022-10-09T00:11:13.497Z,90.94
2022-10-09T00:13:40.145Z,91.09
2022-10-09T00:16:10.325Z,90.96
2022-10-09T00:18:37.422Z,91.16
2022-10-09T00:21:05.165Z,91.39
2022-10-09T00:23:32.602Z,92.32
2022-10-09T00:26:01.617Z,91.60
2022-10-09T00:28:34.291Z,91.55
2022-10-09T00:31:10.519Z,92.74
2022-10-09T00:33:38.398Z,92.16
2022-10-09T00:36:07.236Z,92.15
2022-10-09T00:38:34.643Z,91.94
2022-10-09T00:41:01.613Z,91.40
2022-10-09T00:43:42.020Z,91.55
2022-10-09T00:46:21.128Z,91.49
2022-10-09T00:48:56.289Z,91.41
2022-10-09T00:51:23.327Z,91.22
2022-10-09T00:53:50.263Z,91.95
2022-10-09T00:56:16.919Z,92.19
2022-10-09T00:58:43.645Z,92.44
2022-10-09T01:01:10.293Z,92.25
2022-10-09T01:03:37.036Z,92.12
2022-10-09T01:06:31.008Z,91.76
2022-10-09T01:09:06.319Z,91.54
2022-10-09T01:11:45.553Z,91.98
2022-10-09T01:14:34.258Z,91.74
2022-10-09T01:17:25.615Z,91.20
2022-10-09T01:20:10.975Z,91.32
2022-10-09T01:23:02.007Z,92.55
2022-10-09T01:25:44.959Z,92.61
2022-10-09T01:28:14.993Z,92.75
2022-10-09T01:30:42.581Z,92.71
2022-10-09T01:33:11.071Z,92.08
2022-10-09T01:35:38.702Z,92.37
2022-10-09T01:38:05.649Z,92.34
2022-10-09T01:40:32.346Z,92.07
2022-10-09T01:42:59.582Z,92.61
2022-10-09T01:45:42.608Z,92.25
2022-10-09T01:48:16.607Z,92.79
2022-10-09T01:50:52.897Z,92.79
2022-10-09T01:53:21.080Z,92.93
2022-10-09T01:56:01.276Z,92.53
2022-10-09T01:58:36.338Z,93.33
2022-10-09T02:01:14.347Z,93.94
2022-10-09T02:03:45.183Z,93.93
2022-10-09T02:06:15.018Z,93.26
2022-10-09T02:08:43.907Z,93.48
2022-10-09T02:11:14.820Z,94.10
2022-10-09T02:13:42.373Z,93.72
2022-10-09T02:16:15.264Z,93.14
2022-10-09T02:18:49.372Z,92.34
2022-10-09T02:21:22.898Z,91.83
2022-10-09T02:23:51.054Z,92.29
2022-10-09T02:26:19.381Z,92.50
2022-10-09T07:14:29.428Z,100.00
2022-10-09T07:16:56.017Z,100.00
2022-10-09T07:19:22.683Z,100.00
2022-10-09T07:21:50.284Z,100.00
2022-10-09T07:24:18.190Z,100.00
2022-10-09T07:26:46.457Z,100.00
2022-10-09T07:29:15.103Z,100.00
2022-10-09T07:31:41.794Z,100.00
2022-10-09T07:34:08.530Z,100.00
2022-10-09T07:36:35.573Z,100.00
2022-10-09T07:39:03.358Z,100.00
2022-10-09T07:41:30.511Z,100.00
2022-10-09T07:43:57.771Z,100.00
2022-10-09T07:46:30.812Z,100.00
2022-10-09T07:48:59.101Z,100.00
2022-10-09T07:51:27.880Z,100.00
2022-10-09T07:53:54.727Z,100.00
2022-10-09T07:56:29.484Z,100.00
2022-10-09T07:59:02.120Z,100.00
2022-10-09T08:01:31.364Z,100.00
2022-10-09T08:03:59.005Z,100.00
2022-10-09T08:06:25.961Z,100.00
2022-10-09T08:08:54.744Z,100.00
2022-10-09T08:11:23.105Z,100.00
2022-10-09T08:13:50.711Z,100.00
2022-10-09T08:16:18.654Z,100.00
2022-10-09T08:18:46.101Z,100.00
2022-10-09T08:21:18.570Z,100.00
2022-10-09T08:23:45.823Z,100.00
2022-10-09T08:26:20.719Z,100.00
2022-10-09T08:28:52.797Z,100.00
2022-10-09T08:31:20.055Z,100.00
2022-10-09T08:33:47.157Z,100.00
2022-10-09T08:36:17.375Z,100.00
2022-10-09T08:38:48.227Z,99.05
2022-10-09T08:41:39.653Z,98.39
2022-10-09T08:44:32.116Z,97.49
2022-10-09T08:47:19.692Z,98.29
2022-10-09T08:50:06.062Z,98.18
2022-10-09T08:52:41.824Z,99.04
2022-10-09T08:55:17.491Z,98.59
2022-10-09T08:57:46.406Z,98.32
2022-10-09T09:00:17.527Z,99.28
2022-10-09T09:03:21.740Z,99.00
2022-10-09T09:05:48.276Z,98.45
2022-10-09T09:08:30.968Z,98.49
2022-10-09T09:11:21.472Z,99.30
2022-10-09T09:14:08.636Z,99.89
2022-10-09T09:16:58.190Z,100.00
2022-10-09T09:19:30.902Z,99.66
2022-10-09T09:21:59.011Z,99.90
2022-10-09T09:24:40.030Z,100.00
2022-10-09T09:27:13.527Z,99.68
2022-10-09T09:29:47.097Z,100.00
2022-10-09T09:32:20.487Z,100.00
2022-10-09T09:34:47.464Z,100.00
2022-10-09T09:37:14.686Z,100.00
2022-10-09T09:40:31.378Z,100.00
2022-10-09T09:42:28.741Z,100.00
2022-10-09T09:44:58.659Z,100.00
2022-10-09T09:47:34.760Z,100.00
2022-10-09T09:50:03.784Z,100.00
2022-10-09T09:52:36.235Z,99.30
2022-10-09T09:55:04.096Z,98.53
2022-10-09T09:57:42.560Z,97.61
2022-10-09T10:00:20.594Z,97.67
2022-10-09T10:02:47.923Z,97.85
2022-10-09T10:05:37.654Z,97.74
2022-10-09T10:08:36.653Z,96.62
2022-10-09T10:11:07.151Z,96.83
2022-10-09T10:13:35.806Z,96.55
2022-10-09T10:16:03.164Z,94.72
2022-10-09T10:18:36.616Z,93.41
2022-10-09T10:21:10.632Z,92.49
2022-10-09T10:23:39.842Z,92.39
2022-10-09T10:26:24.858Z,92.04
2022-10-09T10:29:03.250Z,91.32
2022-10-09T10:31:57.772Z,90.46
2022-10-09T10:34:31.372Z,89.34
2022-10-09T10:37:06.101Z,90.34
2022-10-09T10:39:50.427Z,89.05
2022-10-09T10:42:33.502Z,88.80
2022-10-09T10:45:13.148Z,88.10
2022-10-09T10:47:47.681Z,87.85
2022-10-09T10:50:15.848Z,86.10
2022-10-09T10:53:16.258Z,84.02
2022-10-09T10:56:06.108Z,84.96
2022-10-09T10:58:42.759Z,82.58
2022-10-09T11:01:12.372Z,79.39
2022-10-09T11:03:43.377Z,76.18
2022-10-09T11:06:23.194Z,70.26
2022-10-09T11:09:08.358Z,70.85
2022-10-09T11:11:44.727Z,69.82
2022-10-09T11:14:33.814Z,67.55
2022-10-09T11:17:26.974Z,65.15
2022-10-09T11:20:20.900Z,64.76
2022-10-09T11:23:06.384Z,64.46
2022-10-09T11:25:38.912Z,64.13
2022-10-09T11:28:10.775Z,65.47
2022-10-09T11:30:44.287Z,63.45
2022-10-09T11:33:35.574Z,63.57
2022-10-09T11:36:14.379Z,59.62
2022-10-09T11:38:51.552Z,59.27
2022-10-09T11:41:18.814Z,61.05
2022-10-09T11:44:32.683Z,59.45
2022-10-09T11:47:22.323Z,58.30
2022-10-09T11:50:18.453Z,58.58
2022-10-09T11:52:59.333Z,58.01
2022-10-09T11:55:29.010Z,58.60
2022-10-09T11:57:55.638Z,56.84
2022-10-09T12:00:33.772Z,56.87
2022-10-09T12:03:03.486Z,57.53
2022-10-09T12:05:35.348Z,56.74
2022-10-09T12:08:16.776Z,53.78
2022-10-09T12:11:19.523Z,53.65
2022-10-09T12:13:48.466Z,55.26
2022-10-09T12:16:43.325Z,52.79
2022-10-09T12:19:21.250Z,52.58
2022-10-09T12:22:29.074Z,53.39
2022-10-09T12:24:59.219Z,54.69
2022-10-09T12:27:31.199Z,52.22
2022-10-09T12:30:26.096Z,49.47
2022-10-09T12:32:58.831Z,48.61
2022-10-09T12:35:32.313Z,47.33
2022-10-09T12:37:59.000Z,50.23
2022-10-09T12:40:34.689Z,47.01
2022-10-09T12:43:07.610Z,47.12
2022-10-09T12:45:41.850Z,47.00
2022-10-09T12:48:12.213Z,45.32
2022-10-09T12:50:39.577Z,46.18
2022-10-09T12:53:20.842Z,45.80
2022-10-09T12:55:51.623Z,44.77
2022-10-09T12:58:33.171Z,44.21
2022-10-09T13:01:03.212Z,42.40
2022-10-09T13:03:40.818Z,44.28
2022-10-09T13:06:13.755Z,44.33
2022-10-09T13:08:40.942Z,44.04
2022-10-09T13:11:30.560Z,42.13
2022-10-09T13:13:57.544Z,43.90
2022-10-09T13:16:25.085Z,43.38
2022-10-09T13:18:59.863Z,43.95
2022-10-09T13:21:31.391Z,43.46
2022-10-09T13:24:08.346Z,41.80
2022-10-09T13:26:34.986Z,41.32
2022-10-09T13:29:03.742Z,43.78
2022-10-09T13:31:30.417Z,43.21
2022-10-09T13:33:57.026Z,41.22
2022-10-09T13:36:23.629Z,41.65
2022-10-09T13:38:50.661Z,39.33
2022-10-09T13:41:23.421Z,40.58
2022-10-09T13:43:53.359Z,41.59
2022-10-09T13:46:20.059Z,42.11
2022-10-09T13:48:46.607Z,42.28
2022-10-09T13:51:13.197Z,42.71
2022-10-09T13:53:39.784Z,40.75
2022-10-09T13:56:08.536Z,41.55
2022-10-09T13:58:35.363Z,43.82
2022-10-09T14:01:02.080Z,42.13
2022-10-09T14:03:28.765Z,41.54
2022-10-09T14:06:00.058Z,41.73
2022-10-09T14:08:26.705Z,40.98
2022-10-09T14:10:53.907Z,40.77
2022-10-09T14:13:21.488Z,40.93
2022-10-09T14:15:48.652Z,42.37
2022-10-09T14:18:15.156Z,40.94
2022-10-09T14:20:41.706Z,43.04
2022-10-09T14:23:09.309Z,42.83
2022-10-09T14:25:36.020Z,41.77
2022-10-09T14:28:03.200Z,42.25
2022-10-09T14:30:29.954Z,43.48
2022-10-09T14:32:56.659Z,42.76
2022-10-09T14:35:23.561Z,43.11
2022-10-09T14:37:50.151Z,43.23
2022-10-09T14:40:17.078Z,43.71
2022-10-09T14:42:43.675Z,43.96
2022-10-09T14:45:10.775Z,43.90
2022-10-09T14:47:37.550Z,44.95
2022-10-09T14:50:04.265Z,44.29
2022-10-09T14:52:30.827Z,45.77
2022-10-09T14:54:57.378Z,45.15
2022-10-09T14:57:23.969Z,46.37
2022-10-09T14:59:50.550Z,47.58
2022-10-09T15:02:17.690Z,46.32
2022-10-09T15:04:44.250Z,46.45
2022-10-09T15:07:10.854Z,46.04
2022-10-09T15:09:37.460Z,46.79
2022-10-09T15:12:04.205Z,46.50
2022-10-09T15:14:30.786Z,46.94
2022-10-09T15:16:57.496Z,46.92
2022-10-09T15:19:24.040Z,48.09
2022-10-09T15:21:50.631Z,47.80
2022-10-09T15:24:17.200Z,47.88
2022-10-09T15:26:43.750Z,48.02
2022-10-09T15:29:12.169Z,47.63
2022-10-09T15:31:40.626Z,48.43
2022-10-09T15:34:08.283Z,48.83
2022-10-09T15:36:37.444Z,48.82
2022-10-09T15:39:07.361Z,48.78
2022-10-09T15:41:36.178Z,48.36
2022-10-09T15:44:06.397Z,49.01
2022-10-09T15:46:33.169Z,48.45
2022-10-09T15:48:59.952Z,48.85
2022-10-09T15:51:26.678Z,48.30
2022-10-09T15:53:53.445Z,48.31
2022-10-09T15:56:22.827Z,47.35
2022-10-09T15:58:49.722Z,47.74
2022-10-09T16:01:17.498Z,47.36
2022-10-09T16:03:44.341Z,47.77
2022-10-09T16:06:12.859Z,48.09
2022-10-09T16:08:40.439Z,48.91
2022-10-09T16:13:43.763Z,48.72
2022-10-09T16:16:13.705Z,49.07
2022-10-09T16:18:40.414Z,49.58
2022-10-09T16:21:14.147Z,49.47
2022-10-09T16:23:44.993Z,50.66
2022-10-09T16:26:14.547Z,50.53
2022-10-09T16:28:41.214Z,50.66
2022-10-09T16:31:07.816Z,50.76
2022-10-09T16:33:34.370Z,50.84
2022-10-09T16:36:12.297Z,51.22
2022-10-09T16:38:41.252Z,51.25
2022-10-09T16:41:09.685Z,51.52
2022-10-09T16:43:37.608Z,52.14
2022-10-09T16:46:10.428Z,51.70
2022-10-09T16:48:37.103Z,51.81
2022-10-09T16:51:08.720Z,51.99
2022-10-09T16:53:35.516Z,51.75
2022-10-09T16:56:13.793Z,51.81
2022-10-09T16:58:41.982Z,52.36
2022-10-09T17:01:10.291Z,52.85
2022-10-09T17:03:40.536Z,53.54
2022-10-09T17:06:12.910Z,54.27
2022-10-09T17:08:39.669Z,54.55
2022-10-09T17:11:11.666Z,55.00
2022-10-09T17:13:39.174Z,55.30
2022-10-09T17:16:17.150Z,56.08
2022-10-09T17:18:45.082Z,56.33
2022-10-09T17:21:15.984Z,56.77
2022-10-09T17:23:42.580Z,57.14
2022-10-09T17:26:14.238Z,57.30
2022-10-09T17:28:42.122Z,57.70
2022-10-09T17:31:12.241Z,58.35
2022-10-09T17:33:41.486Z,58.40
2022-10-09T17:36:09.303Z,58.88
2022-10-09T17:38:36.225Z,58.80
2022-10-09T17:41:11.591Z,59.46
2022-10-09T17:43:38.723Z,60.02
2022-10-09T17:46:06.426Z,60.28
2022-10-09T17:48:34.803Z,60.78
2022-10-09T17:51:06.200Z,61.41
2022-10-09T17:53:32.816Z,61.70
2022-10-09T17:56:03.484Z,61.38
2022-10-09T17:58:30.118Z,62.50
2022-10-09T18:00:56.783Z,62.60
2022-10-09T18:03:23.538Z,63.24
2022-10-09T18:05:51.334Z,63.46
2022-10-09T18:08:19.075Z,63.63
2022-10-09T18:10:46.338Z,64.06
2022-10-09T18:13:12.971Z,64.73
2022-10-09T18:15:41.350Z,64.64
2022-10-09T18:18:08.953Z,64.76
2022-10-09T18:20:37.513Z,65.19
2022-10-09T18:23:04.935Z,65.82
2022-10-09T18:25:31.638Z,66.18
2022-10-09T18:27:58.442Z,65.89
2022-10-09T18:30:25.457Z,66.67
2022-10-09T18:32:52.237Z,67.06
2022-10-09T18:35:19.242Z,67.33
2022-10-09T18:37:45.763Z,67.74
2022-10-09T18:40:14.062Z,68.71
2022-10-09T18:42:40.677Z,68.71
2022-10-09T18:45:09.158Z,68.90
2022-10-09T18:47:36.032Z,70.69
2022-10-09T18:50:07.515Z,70.82
2022-10-09T18:52:35.318Z,71.92
2022-10-09T18:55:02.911Z,71.44
2022-10-09T18:57:30.145Z,71.38
2022-10-09T18:59:58.232Z,71.10
2022-10-09T19:02:27.007Z,71.26
2022-10-09T19:04:54.711Z,71.47
2022-10-09T19:07:21.454Z,71.31
2022-10-09T19:09:56.312Z,71.75
2022-10-09T19:12:24.521Z,71.63
2022-10-09T19:14:51.402Z,71.86
2022-10-09T19:17:18.085Z,72.29
2022-10-09T19:19:44.650Z,71.88
2022-10-09T19:22:15.904Z,72.14
2022-10-09T19:24:44.281Z,72.22
2022-10-09T19:27:11.408Z,74.33
2022-10-09T19:29:38.109Z,74.31
2022-10-09T19:32:04.890Z,73.82
2022-10-09T19:34:31.800Z,73.80
2022-10-09T19:36:58.407Z,74.14
2022-10-09T19:39:25.084Z,74.30
2022-10-09T19:41:51.650Z,74.59
2022-10-09T19:44:18.566Z,74.74
2022-10-09T19:46:45.838Z,74.67
2022-10-09T19:49:12.474Z,74.50
2022-10-09T19:51:39.109Z,75.07
2022-10-09T19:54:07.210Z,75.76
2022-10-09T19:56:34.457Z,75.80
2022-10-09T19:59:03.080Z,75.09
2022-10-09T20:01:32.803Z,75.73
2022-10-09T20:04:01.666Z,76.41
2022-10-09T20:06:28.647Z,76.41
2022-10-09T20:08:56.487Z,76.79
2022-10-09T20:11:25.593Z,77.28
2022-10-09T20:13:55.954Z,76.81
2022-10-09T20:16:25.012Z,76.68
2022-10-09T20:18:51.703Z,77.34
2022-10-09T20:21:18.562Z,77.16
2022-10-09T20:23:45.340Z,79.09
2022-10-09T20:26:14.955Z,78.76
2022-10-09T20:28:41.793Z,79.18
2022-10-09T20:31:15.025Z,79.01
2022-10-09T20:33:42.662Z,80.04
2022-10-09T20:36:17.706Z,79.58
2022-10-09T20:38:44.332Z,80.00
2022-10-09T20:41:11.118Z,80.05
2022-10-09T20:43:38.162Z,79.96
2022-10-09T20:46:10.704Z,81.68
2022-10-09T20:48:37.281Z,81.51
2022-10-09T20:51:04.247Z,82.77
2022-10-09T20:53:31.436Z,81.43
2022-10-09T20:56:05.671Z,81.43
2022-10-09T20:58:32.514Z,81.20
2022-10-09T21:00:59.189Z,81.84
2022-10-09T21:03:25.876Z,81.35
2022-10-09T21:05:53.044Z,80.85
2022-10-09T21:08:19.598Z,81.35
2022-10-09T21:10:49.055Z,81.54
2022-10-09T21:13:16.181Z,81.75
2022-10-09T21:15:47.602Z,81.86
2022-10-09T21:18:16.784Z,82.29
2022-10-09T21:20:45.103Z,83.69
2022-10-09T21:23:13.846Z,83.13
2022-10-09T21:25:47.750Z,83.84
2022-10-09T21:28:14.806Z,83.60
2022-10-09T21:30:41.964Z,84.27
2022-10-09T21:33:09.324Z,83.83
2022-10-09T21:35:43.513Z,83.92
2022-10-09T21:38:12.968Z,83.04
2022-10-09T21:40:39.854Z,84.83
2022-10-09T21:43:07.507Z,83.91
2022-10-09T21:45:34.380Z,83.85
2022-10-09T21:48:00.993Z,84.21
2022-10-09T21:50:28.140Z,84.45
2022-10-09T21:52:54.672Z,84.02
2022-10-09T21:55:21.293Z,85.26
2022-10-09T21:57:48.104Z,86.09
2022-10-09T22:00:15.208Z,85.65
2022-10-09T22:02:41.854Z,85.27
2022-10-09T22:05:09.004Z,85.11
2022-10-09T22:07:35.968Z,85.40
2022-10-09T22:10:03.584Z,84.56
2022-10-09T22:12:30.155Z,85.19
2022-10-09T22:14:56.776Z,84.71
2022-10-09T22:17:23.417Z,85.34
2022-10-09T22:19:50.000Z,85.46
2022-10-09T22:22:16.761Z,85.07
2022-10-09T22:24:43.633Z,86.33
2022-10-09T22:27:10.210Z,87.11
2022-10-09T22:29:38.505Z,86.44
2022-10-09T22:32:06.063Z,86.75
2022-10-09T22:34:32.642Z,86.11
2022-10-09T22:36:59.199Z,86.04
2022-10-09T22:39:25.736Z,86.80
2022-10-09T22:41:52.392Z,86.07
2022-10-09T22:44:18.992Z,86.72
2022-10-09T22:46:45.841Z,85.80
2022-10-09T22:49:15.097Z,85.30
2022-10-09T22:51:41.928Z,85.46
2022-10-09T22:54:08.739Z,85.92
2022-10-09T22:56:38.869Z,86.52
2022-10-09T22:59:07.792Z,86.51
2022-10-09T23:01:43.468Z,87.38
2022-10-09T23:04:14.391Z,86.66
2022-10-09T23:06:41.755Z,86.17
2022-10-09T23:09:10.925Z,85.97
2022-10-09T23:11:37.537Z,85.39
2022-10-09T23:14:04.793Z,87.40
2022-10-09T23:16:31.499Z,87.46
2022-10-09T23:19:05.497Z,87.38
2022-10-09T23:21:33.487Z,86.51
2022-10-09T23:24:00.178Z,87.00
2022-10-09T23:26:30.970Z,87.12
2022-10-09T23:29:00.272Z,86.75
2022-10-09T23:31:27.756Z,86.56
2022-10-09T23:33:54.988Z,87.14
2022-10-09T23:36:23.858Z,86.82
2022-10-09T23:38:51.144Z,87.21
2022-10-09T23:41:20.352Z,87.92
2022-10-09T23:43:48.211Z,87.93
2022-10-09T23:46:21.087Z,87.88
2022-10-09T23:48:49.139Z,87.69
2022-10-09T23:51:16.703Z,87.92
2022-10-09T23:53:44.098Z,88.10
2022-10-09T23:56:25.564Z,87.75
2022-10-09T23:58:52.892Z,87.63
